createdAt,value
2022-09-13T00:01:23.126Z,18.50
2022-09-13T00:03:49.810Z,18.50
2022-09-13T00:06:18.907Z,18.30
2022-09-13T00:08:46.090Z,18.20
2022-09-13T00:11:18.689Z,18.20
2022-09-13T00:13:45.918Z,18.30
2022-09-13T00:16:14.375Z,18.00
2022-09-13T00:18:41.343Z,17.90
2022-09-13T00:21:18.610Z,17.60
2022-09-13T00:23:47.247Z,17.80
2022-09-13T00:26:16.260Z,18.00
2022-09-13T00:28:43.080Z,18.30
2022-09-13T00:31:10.072Z,18.20
2022-09-13T00:33:37.313Z,18.10
2022-09-13T00:36:13.290Z,18.00
2022-09-13T00:38:40.320Z,18.30
2022-09-13T00:41:10.113Z,18.30
2022-09-13T00:43:45.458Z,18.10
2022-09-13T00:46:18.202Z,17.90
2022-09-13T00:48:46.898Z,17.80
2022-09-13T00:51:13.797Z,17.90
2022-09-13T00:53:44.184Z,17.70
2022-09-13T00:56:20.888Z,17.60
2022-09-13T00:59:23.121Z,17.60
2022-09-13T01:01:53.588Z,17.50
2022-09-13T01:04:21.317Z,17.30
2022-09-13T01:06:48.027Z,17.10
2022-09-13T01:09:15.665Z,17.30
2022-09-13T01:11:50.422Z,17.30
2022-09-13T01:14:18.517Z,17.70
2022-09-13T01:16:47.927Z,17.60
2022-09-13T01:19:14.769Z,17.60
2022-09-13T01:21:44.329Z,17.40
2022-09-13T01:24:32.137Z,17.50
2022-09-13T01:27:20.453Z,17.60
2022-09-13T01:30:05.197Z,17.70
2022-09-13T01:33:05.896Z,17.60
2022-09-13T01:35:54.557Z,17.50
2022-09-13T01:38:37.726Z,17.40
2022-09-13T01:41:11.613Z,17.20
2022-09-13T01:44:06.448Z,17.40
2022-09-13T01:46:56.940Z,17.50
2022-09-13T01:49:39.918Z,17.30
2022-09-13T01:52:43.413Z,17.10
2022-09-13T01:55:15.463Z,17.00
2022-09-13T01:58:02.820Z,16.90
2022-09-13T02:00:33.554Z,17.20
2022-09-13T02:03:14.331Z,16.90
2022-09-13T02:05:46.212Z,17.00
2022-09-13T02:08:23.563Z,17.00
2022-09-13T02:11:10.159Z,16.70
2022-09-13T02:13:41.138Z,16.70
2022-09-13T02:16:13.080Z,16.80
2022-09-13T02:18:41.619Z,16.90
2022-09-13T02:21:13.356Z,16.60
2022-09-13T02:24:02.467Z,16.50
2022-09-13T02:26:30.436Z,16.40
2022-09-13T02:28:59.074Z,16.50
2022-09-13T02:31:30.929Z,16.40
2022-09-13T02:34:00.509Z,16.70
2022-09-13T02:36:31.039Z,16.80
2022-09-13T02:39:01.093Z,16.90
2022-09-13T02:41:36.837Z,17.00
2022-09-13T02:44:11.505Z,16.90
2022-09-13T02:47:00.230Z,16.70
2022-09-13T02:49:51.420Z,16.60
2022-09-13T02:52:39.741Z,16.40
2022-09-13T02:55:15.992Z,16.50
2022-09-13T02:58:05.865Z,16.10
2022-09-13T03:00:32.536Z,16.20
2022-09-13T03:03:03.436Z,16.40
2022-09-13T03:05:31.885Z,16.00
2022-09-13T03:07:59.223Z,15.80
2022-09-13T03:10:29.109Z,16.00
2022-09-13T03:13:05.973Z,16.10
2022-09-13T03:15:59.608Z,16.10
2022-09-13T03:18:44.558Z,15.90
2022-09-13T03:21:27.062Z,15.90
2022-09-13T03:24:26.367Z,15.40
2022-09-13T03:27:09.706Z,15.50
2022-09-13T03:29:58.929Z,15.50
2022-09-13T03:32:36.843Z,15.70
2022-09-13T03:35:22.166Z,15.50
2022-09-13T03:38:28.431Z,15.60
2022-09-13T03:41:02.235Z,15.50
2022-09-13T03:43:35.845Z,15.40
2022-09-13T03:46:09.081Z,15.20
2022-09-13T03:48:37.889Z,15.40
2022-09-13T03:51:07.603Z,15.40
2022-09-13T03:53:37.411Z,15.30
2022-09-13T03:56:15.016Z,15.00
2022-09-13T03:58:41.918Z,15.00
2022-09-13T04:01:10.265Z,15.30
2022-09-13T04:03:37.925Z,15.20
2022-09-13T04:06:05.186Z,15.40
2022-09-13T04:08:34.678Z,15.40
2022-09-13T04:11:01.488Z,15.40
2022-09-13T04:13:28.508Z,15.80
2022-09-13T04:15:54.986Z,15.80
2022-09-13T04:18:21.519Z,15.10
2022-09-13T04:20:55.359Z,15.00
2022-09-13T04:23:22.535Z,14.80
2022-09-13T04:25:49.047Z,15.20
2022-09-13T04:28:17.288Z,15.40
2022-09-13T04:30:45.217Z,15.20
2022-09-13T04:33:12.057Z,15.10
2022-09-13T04:35:42.004Z,15.20
2022-09-13T04:38:08.935Z,15.10
2022-09-13T04:40:36.564Z,15.40
2022-09-13T04:43:03.616Z,15.40
2022-09-13T04:45:30.292Z,14.90
2022-09-13T04:47:57.468Z,14.70
2022-09-13T04:50:25.587Z,14.60
2022-09-13T04:52:55.358Z,15.20
2022-09-13T04:55:21.976Z,15.20
2022-09-13T05:00:31.671Z,14.80
2022-09-13T05:02:58.177Z,14.60
2022-09-13T05:05:25.843Z,14.40
2022-09-13T05:07:52.660Z,14.60
2022-09-13T05:10:19.762Z,14.70
2022-09-13T05:12:46.438Z,14.50
2022-09-13T05:15:13.429Z,14.40
2022-09-13T05:17:39.953Z,14.50
2022-09-13T05:20:06.957Z,14.50
2022-09-13T05:22:33.484Z,14.40
2022-09-13T05:25:02.273Z,14.40
2022-09-13T05:27:28.782Z,14.50
2022-09-13T05:29:55.239Z,14.50
2022-09-13T05:32:21.721Z,14.50
2022-09-13T05:34:50.509Z,14.50
2022-09-13T05:37:18.475Z,14.70
2022-09-13T05:40:09.747Z,14.60
2022-09-13T05:42:31.721Z,14.70
2022-09-13T05:44:58.403Z,14.60
2022-09-13T05:47:24.882Z,14.60
2022-09-13T05:50:09.277Z,14.70
2022-09-13T05:52:36.618Z,14.60
2022-09-13T05:55:03.322Z,14.70
2022-09-13T05:57:29.777Z,14.70
2022-09-13T05:59:56.237Z,15.10
2022-09-13T06:02:22.837Z,14.60
2022-09-13T06:04:50.747Z,14.70
2022-09-13T06:07:19.223Z,14.70
2022-09-13T06:09:45.836Z,14.60
2022-09-13T06:12:12.366Z,14.60
2022-09-13T06:14:38.922Z,14.50
2022-09-13T06:17:05.473Z,14.50
2022-09-13T06:19:31.929Z,14.90
2022-09-13T06:21:58.517Z,15.60
2022-09-13T06:24:25.107Z,15.80
2022-09-13T06:26:54.514Z,15.60
2022-09-13T06:29:21.030Z,15.50
2022-09-13T06:31:47.552Z,15.70
2022-09-13T06:34:15.569Z,16.10
2022-09-13T06:36:42.521Z,15.80
2022-09-13T06:39:12.254Z,15.40
2022-09-13T06:41:39.161Z,15.00
2022-09-13T06:44:05.896Z,14.90
2022-09-13T06:46:34.626Z,14.80
2022-09-13T06:49:05.011Z,14.80
2022-09-13T06:51:32.551Z,14.80
2022-09-13T06:53:59.955Z,15.10
2022-09-13T06:56:32.511Z,15.20
2022-09-13T06:59:07.010Z,15.50
2022-09-13T07:01:38.443Z,15.50
2022-09-13T07:04:19.385Z,15.50
2022-09-13T07:06:47.790Z,15.40
2022-09-13T07:09:18.006Z,15.30
2022-09-13T07:11:45.376Z,15.10
2022-09-13T07:14:14.587Z,15.10
2022-09-13T07:16:41.407Z,15.10
2022-09-13T07:19:13.481Z,15.10
2022-09-13T07:21:40.047Z,15.20
2022-09-13T07:24:06.801Z,15.40
2022-09-13T07:26:33.728Z,15.50
2022-09-13T07:29:03.016Z,15.50
2022-09-13T07:31:38.279Z,15.60
2022-09-13T07:34:06.994Z,15.60
2022-09-13T07:36:34.950Z,15.70
2022-09-13T07:39:01.903Z,15.40
2022-09-13T07:41:29.560Z,15.40
2022-09-13T07:43:57.306Z,15.40
2022-09-13T07:46:25.934Z,15.40
2022-09-13T07:48:54.181Z,15.40
2022-09-13T07:51:26.035Z,15.30
2022-09-13T07:53:57.641Z,15.50
2022-09-13T07:56:29.820Z,15.50
2022-09-13T07:58:58.409Z,15.60
2022-09-13T08:01:36.395Z,16.20
2022-09-13T08:04:05.658Z,16.30
2022-09-13T08:06:33.755Z,16.30
2022-09-13T08:09:00.844Z,16.00
2022-09-13T08:11:35.659Z,16.20
2022-09-13T08:14:03.272Z,16.20
2022-09-13T08:16:31.087Z,16.10
2022-09-13T08:19:00.389Z,16.00
2022-09-13T08:21:27.096Z,15.90
2022-09-13T08:23:59.748Z,15.90
2022-09-13T08:26:28.110Z,15.80
2022-09-13T08:28:59.926Z,16.00
2022-09-13T08:31:27.231Z,16.00
2022-09-13T08:33:54.384Z,15.90
2022-09-13T08:36:23.790Z,16.00
2022-09-13T08:38:55.893Z,16.20
2022-09-13T08:41:33.932Z,16.20
2022-09-13T08:44:10.993Z,16.00
2022-09-13T08:46:41.429Z,16.20
2022-09-13T08:49:29.697Z,16.30
2022-09-13T08:51:59.968Z,16.40
2022-09-13T08:54:26.801Z,16.60
2022-09-13T08:57:02.519Z,16.60
2022-09-13T08:59:42.114Z,16.70
2022-09-13T09:02:14.879Z,16.80
2022-09-13T09:04:50.831Z,17.10
2022-09-13T09:07:18.092Z,17.40
2022-09-13T09:09:58.343Z,17.80
2022-09-13T09:12:32.403Z,18.30
2022-09-13T09:15:14.930Z,18.30
2022-09-13T09:17:48.730Z,18.00
2022-09-13T09:20:32.655Z,17.80
2022-09-13T09:23:03.339Z,17.80
2022-09-13T09:25:30.135Z,17.80
2022-09-13T09:27:58.273Z,18.10
2022-09-13T09:30:34.908Z,18.40
2022-09-13T09:33:29.250Z,18.60
2022-09-13T09:36:02.209Z,18.80
2022-09-13T09:38:33.837Z,19.50
2022-09-13T09:41:05.548Z,19.40
2022-09-13T09:43:53.458Z,20.20
2022-09-13T09:46:24.458Z,20.50
2022-09-13T09:49:25.735Z,20.60
2022-09-13T09:51:52.152Z,20.60
2022-09-13T09:54:18.789Z,20.80
2022-09-13T09:56:55.235Z,21.00
2022-09-13T09:59:26.654Z,21.70
2022-09-13T10:01:53.872Z,21.00
2022-09-13T10:04:22.187Z,20.80
2022-09-13T10:06:49.804Z,21.20
2022-09-13T10:09:18.218Z,20.90
2022-09-13T10:11:53.304Z,21.30
2022-09-13T10:14:43.149Z,21.30
2022-09-13T10:17:28.817Z,21.40
2022-09-13T10:19:55.353Z,21.80
2022-09-13T10:22:23.021Z,22.20
2022-09-13T10:24:50.527Z,21.90
2022-09-13T10:27:23.181Z,21.90
2022-09-13T10:29:52.201Z,21.80
2022-09-13T10:32:19.770Z,21.60
2022-09-13T10:34:46.576Z,21.20
2022-09-13T10:37:21.405Z,21.70
2022-09-13T10:39:54.008Z,22.10
2022-09-13T10:42:23.649Z,22.00
2022-09-13T10:44:59.317Z,21.60
2022-09-13T10:47:48.552Z,21.60
2022-09-13T10:50:25.759Z,21.40
2022-09-13T10:52:59.762Z,21.60
2022-09-13T10:55:37.013Z,21.40
2022-09-13T10:58:03.456Z,21.00
2022-09-13T11:01:07.392Z,20.90
2022-09-13T11:04:07.873Z,21.00
2022-09-13T11:06:43.040Z,21.00
2022-09-13T11:09:16.493Z,20.90
2022-09-13T11:12:07.563Z,20.90
2022-09-13T11:15:04.981Z,21.00
2022-09-13T11:18:05.128Z,21.20
2022-09-13T11:21:09.301Z,21.40
2022-09-13T11:23:52.379Z,21.00
2022-09-13T11:26:46.990Z,20.90
2022-09-13T11:29:30.112Z,20.70
2022-09-13T11:32:02.575Z,20.50
2022-09-13T11:34:49.428Z,20.50
2022-09-13T11:37:44.767Z,20.50
2022-09-13T11:40:29.036Z,20.60
2022-09-13T11:43:32.079Z,20.50
2022-09-13T11:46:04.413Z,20.10
2022-09-13T11:49:03.066Z,19.90
2022-09-13T11:51:40.608Z,19.80
2022-09-13T11:54:31.900Z,19.60
2022-09-13T11:57:04.056Z,19.50
2022-09-13T11:59:51.340Z,19.50
2022-09-13T12:02:30.306Z,19.70
2022-09-13T12:05:20.945Z,19.40
2022-09-13T12:07:49.187Z,19.30
2022-09-13T12:11:18.845Z,19.40
2022-09-13T12:13:50.669Z,19.50
2022-09-13T12:16:24.890Z,19.50
2022-09-13T12:18:57.599Z,19.50
2022-09-13T12:21:27.176Z,19.60
2022-09-13T12:24:12.458Z,19.90
2022-09-13T12:26:53.256Z,19.90
2022-09-13T12:29:49.115Z,19.80
2022-09-13T12:32:16.607Z,19.70
2022-09-13T12:34:58.607Z,19.80
2022-09-13T12:37:58.679Z,20.20
2022-09-13T12:41:04.924Z,20.00
2022-09-13T12:44:10.340Z,19.90
2022-09-13T12:46:58.166Z,19.70
2022-09-13T12:49:37.061Z,20.00
2022-09-13T12:52:31.555Z,19.90
2022-09-13T12:55:23.802Z,20.30
2022-09-13T12:58:21.111Z,20.00
2022-09-13T13:01:05.714Z,20.30
2022-09-13T13:03:35.649Z,20.00
2022-09-13T13:06:25.815Z,20.30
2022-09-13T13:08:56.103Z,20.40
2022-09-13T13:11:27.910Z,20.30
2022-09-13T13:14:09.235Z,20.30
2022-09-13T13:16:38.338Z,20.10
2022-09-13T13:19:26.626Z,20.10
2022-09-13T13:21:54.290Z,20.00
2022-09-13T13:24:20.772Z,20.00
2022-09-13T13:26:57.507Z,20.00
2022-09-13T13:29:26.202Z,20.10
2022-09-13T13:32:04.039Z,20.30
2022-09-13T13:34:39.980Z,20.60
2022-09-13T13:37:12.233Z,20.30
2022-09-13T13:39:47.700Z,20.30
2022-09-13T13:42:38.146Z,20.60
2022-09-13T13:45:14.980Z,20.90
2022-09-13T13:48:07.844Z,20.70
2022-09-13T13:50:37.586Z,20.70
2022-09-13T13:53:20.440Z,20.30
2022-09-13T13:55:49.269Z,20.30
2022-09-13T13:58:15.851Z,20.60
2022-09-13T14:00:48.410Z,20.20
2022-09-13T14:03:26.518Z,20.50
2022-09-13T14:06:11.511Z,20.60
2022-09-13T14:08:52.876Z,20.90
2022-09-13T14:11:38.372Z,21.40
2022-09-13T14:14:32.746Z,21.50
2022-09-13T14:17:31.844Z,21.60
2022-09-13T14:20:05.501Z,21.90
2022-09-13T14:22:32.119Z,21.70
2022-09-13T14:25:23.861Z,22.00
2022-09-13T14:27:53.988Z,21.30
2022-09-13T14:30:32.151Z,21.10
2022-09-13T14:32:58.781Z,20.90
2022-09-13T14:35:33.025Z,21.10
2022-09-13T14:38:19.870Z,21.50
2022-09-13T14:40:51.865Z,21.30
2022-09-13T14:43:23.385Z,21.40
2022-09-13T14:45:53.509Z,21.10
2022-09-13T14:48:28.530Z,20.90
2022-09-13T14:50:58.590Z,20.80
2022-09-13T14:53:28.038Z,21.00
2022-09-13T14:56:07.279Z,20.90
2022-09-13T14:58:53.501Z,20.80
2022-09-13T15:01:22.544Z,20.70
2022-09-13T15:03:49.547Z,20.60
2022-09-13T15:06:24.989Z,20.40
2022-09-13T15:08:52.674Z,20.50
2022-09-13T15:11:34.449Z,20.70
2022-09-13T15:14:21.098Z,20.80
2022-09-13T15:16:52.409Z,20.70
2022-09-13T15:19:43.198Z,21.00
2022-09-13T15:22:20.963Z,21.40
2022-09-13T15:24:50.644Z,21.40
2022-09-13T15:27:26.064Z,21.00
2022-09-13T15:30:04.114Z,21.20
2022-09-13T15:32:40.282Z,21.50
2022-09-13T15:35:40.124Z,21.30
2022-09-13T15:38:31.963Z,21.00
2022-09-13T15:41:16.985Z,20.80
2022-09-13T15:43:47.309Z,20.80
2022-09-13T15:46:15.899Z,20.80
2022-09-13T15:48:51.050Z,20.60
2022-09-13T15:51:18.370Z,20.80
2022-09-13T15:53:46.606Z,20.90
2022-09-13T15:56:21.058Z,20.90
2022-09-13T15:58:48.109Z,20.80
2022-09-13T16:01:16.016Z,20.60
2022-09-13T16:03:42.587Z,20.40
2022-09-13T16:06:09.800Z,20.30
2022-09-13T16:08:37.092Z,20.40
2022-09-13T16:11:03.920Z,20.50
2022-09-13T16:13:30.370Z,20.40
2022-09-13T16:15:58.111Z,20.40
2022-09-13T16:18:25.022Z,20.30
2022-09-13T16:20:51.894Z,20.50
2022-09-13T16:23:18.401Z,20.40
2022-09-13T16:25:44.950Z,20.20
2022-09-13T16:28:20.869Z,20.20
2022-09-13T16:30:48.203Z,20.20
2022-09-13T16:33:14.861Z,20.20
2022-09-13T16:35:41.409Z,20.30
2022-09-13T16:38:09.925Z,20.20
2022-09-13T16:40:39.491Z,20.20
2022-09-13T16:43:06.018Z,20.30
2022-09-13T16:45:33.161Z,20.30
2022-09-13T16:47:59.908Z,20.10
2022-09-13T16:50:26.375Z,20.20
2022-09-13T16:52:52.855Z,20.10
2022-09-13T16:55:19.344Z,20.10
2022-09-13T16:57:48.244Z,20.10
2022-09-13T17:00:15.231Z,19.90
2022-09-13T17:02:41.727Z,19.90
2022-09-13T17:05:09.951Z,19.80
2022-09-13T17:07:36.992Z,19.70
2022-09-13T17:10:05.563Z,19.70
2022-09-13T17:12:32.097Z,19.70
2022-09-13T17:14:59.042Z,19.70
2022-09-13T17:17:25.866Z,19.80
2022-09-13T17:19:52.599Z,19.70
2022-09-13T17:22:19.160Z,19.70
2022-09-13T17:24:45.823Z,19.50
2022-09-13T17:27:12.350Z,19.50
2022-09-13T17:29:38.813Z,19.40
2022-09-13T17:32:06.022Z,19.40
2022-09-13T17:34:34.454Z,19.40
2022-09-13T17:37:03.496Z,19.30
2022-09-13T17:39:30.643Z,19.30
2022-09-13T17:41:57.940Z,19.30
2022-09-13T17:44:24.586Z,19.20
2022-09-13T17:46:51.098Z,19.30
2022-09-13T17:49:17.598Z,19.30
2022-09-13T17:51:44.052Z,19.20
2022-09-13T17:54:13.159Z,19.10
2022-09-13T17:56:42.493Z,19.10
2022-09-13T17:59:20.518Z,19.00
2022-09-13T18:01:49.372Z,19.20
2022-09-13T18:04:17.415Z,19.20
2022-09-13T18:06:44.395Z,19.30
2022-09-13T18:09:11.642Z,19.50
2022-09-13T18:11:38.386Z,19.60
2022-09-13T18:14:05.337Z,19.60
2022-09-13T18:16:31.891Z,19.40
2022-09-13T18:18:59.893Z,19.30
2022-09-13T18:21:27.405Z,19.40
2022-09-13T18:23:57.983Z,19.50
2022-09-13T18:26:25.923Z,19.50
2022-09-13T18:28:57.163Z,19.40
2022-09-13T18:31:24.676Z,19.20
2022-09-13T18:33:57.238Z,19.20
2022-09-13T18:36:24.213Z,19.20
2022-09-13T18:38:51.533Z,19.00
2022-09-13T18:41:25.930Z,19.10
2022-09-13T18:43:55.774Z,19.10
2022-09-13T18:46:25.350Z,19.20
2022-09-13T18:48:54.051Z,19.10
2022-09-13T18:51:22.784Z,19.40
2022-09-13T18:53:50.136Z,19.70
2022-09-13T18:56:18.778Z,19.80
2022-09-13T18:58:45.558Z,19.90
2022-09-13T19:01:21.243Z,19.80
2022-09-13T19:03:56.120Z,19.80
2022-09-13T19:06:24.723Z,19.50
2022-09-13T19:08:52.489Z,19.70
2022-09-13T19:11:44.641Z,19.80
2022-09-13T19:14:07.560Z,20.00
2022-09-13T19:16:34.326Z,20.20
2022-09-13T19:19:01.395Z,20.20
2022-09-13T19:21:30.988Z,20.00
2022-09-13T19:24:06.571Z,19.70
2022-09-13T19:26:37.633Z,20.10
2022-09-13T19:29:07.076Z,20.20
2022-09-13T19:31:35.821Z,20.30
2022-09-13T19:34:02.579Z,20.40
2022-09-13T19:36:34.135Z,20.10
2022-09-13T19:39:01.345Z,19.60
2022-09-13T19:41:29.711Z,19.00
2022-09-13T19:44:00.873Z,19.00
2022-09-13T19:46:32.899Z,19.10
2022-09-13T19:49:00.633Z,19.10
2022-09-13T19:51:36.032Z,19.20
2022-09-13T19:54:02.944Z,19.20
2022-09-13T19:56:32.546Z,18.80
2022-09-13T19:59:00.266Z,18.80
2022-09-13T20:01:32.500Z,19.00
2022-09-13T20:04:01.079Z,19.20
2022-09-13T20:06:28.733Z,19.10
2022-09-13T20:08:59.384Z,19.10
2022-09-13T20:11:27.846Z,19.30
2022-09-13T20:13:54.476Z,19.40
2022-09-13T20:16:23.588Z,19.60
2022-09-13T20:18:50.754Z,19.70
2022-09-13T20:21:18.151Z,19.70
2022-09-13T20:23:45.729Z,19.50
2022-09-13T20:26:20.681Z,19.50
2022-09-13T20:28:48.400Z,19.60
2022-09-13T20:31:15.908Z,19.40
2022-09-13T20:33:42.851Z,19.20
2022-09-13T20:36:11.508Z,19.50
2022-09-13T20:38:38.756Z,18.90
2022-09-13T20:41:06.521Z,18.60
2022-09-13T20:43:33.840Z,18.60
2022-09-13T20:46:02.455Z,18.80
2022-09-13T20:48:28.973Z,18.90
2022-09-13T20:50:57.489Z,19.20
2022-09-13T20:53:24.011Z,19.50
2022-09-13T20:55:50.776Z,19.70
2022-09-13T20:58:17.230Z,19.80
2022-09-13T21:00:43.958Z,19.60
2022-09-13T21:03:11.108Z,19.00
2022-09-13T21:05:37.886Z,18.40
2022-09-13T21:08:23.028Z,18.80
2022-09-13T21:10:57.071Z,18.90
2022-09-13T21:13:23.552Z,19.20
2022-09-13T21:15:50.175Z,19.30
2022-09-13T21:18:17.764Z,19.10
2022-09-13T21:20:44.208Z,19.30
2022-09-13T21:23:10.700Z,19.40
2022-09-13T21:25:37.184Z,19.40
2022-09-13T21:28:04.000Z,19.50
2022-09-13T21:30:30.525Z,19.10
2022-09-13T21:32:57.056Z,19.20
2022-09-13T21:35:23.668Z,19.20
2022-09-13T21:37:50.542Z,19.20
2022-09-13T21:40:17.464Z,19.10
2022-09-13T21:42:43.956Z,19.00
2022-09-13T21:45:10.662Z,19.00
2022-09-13T21:47:37.117Z,18.50
2022-09-13T21:50:03.785Z,18.60
2022-09-13T21:52:30.224Z,18.60
2022-09-13T21:54:56.658Z,18.70
2022-09-13T21:57:23.177Z,18.70
2022-09-13T21:59:51.432Z,18.60
2022-09-13T22:02:18.159Z,18.70
2022-09-13T22:04:44.620Z,18.50
2022-09-13T22:07:11.110Z,18.60
2022-09-13T22:09:37.614Z,18.50
2022-09-13T22:12:04.281Z,18.30
2022-09-13T22:14:30.791Z,18.40
2022-09-13T22:16:57.375Z,18.00
2022-09-13T22:19:27.958Z,18.00
2022-09-13T22:21:56.942Z,18.30
2022-09-13T22:24:25.038Z,18.30
2022-09-13T22:26:53.486Z,18.30
2022-09-13T22:29:21.081Z,18.60
2022-09-13T22:31:49.333Z,18.80
2022-09-13T22:34:18.235Z,18.80
2022-09-13T22:36:44.932Z,18.80
2022-09-13T22:39:13.139Z,18.80
2022-09-13T22:41:40.417Z,18.60
2022-09-13T22:44:07.063Z,18.70
2022-09-13T22:46:36.388Z,18.60
2022-09-13T22:49:03.793Z,18.40
2022-09-13T22:51:30.336Z,18.30
2022-09-13T22:53:57.568Z,17.90
2022-09-13T22:56:25.980Z,18.20
2022-09-13T22:59:11.592Z,18.50
2022-09-13T23:01:38.295Z,18.30
2022-09-13T23:04:05.387Z,18.40
2022-09-13T23:06:32.041Z,18.30
2022-09-13T23:09:00.641Z,18.00
2022-09-13T23:11:32.740Z,17.90
2022-09-13T23:14:01.694Z,18.10
2022-09-13T23:16:31.356Z,18.30
2022-09-13T23:18:58.632Z,18.30
2022-09-13T23:21:31.092Z,18.30
2022-09-13T23:23:59.279Z,18.20
2022-09-13T23:26:26.064Z,18.20
2022-09-13T23:28:57.894Z,18.00
2022-09-13T23:31:26.588Z,17.90
2022-09-13T23:33:55.159Z,17.60
2022-09-13T23:36:25.174Z,17.80
2022-09-13T23:38:54.347Z,17.80
2022-09-13T23:41:21.098Z,17.90
2022-09-13T23:43:48.483Z,17.80
2022-09-13T23:46:15.517Z,17.90
2022-09-13T23:48:45.160Z,17.90
2022-09-13T23:51:17.064Z,17.90
2022-09-13T23:53:43.861Z,18.00
2022-09-13T23:56:10.661Z,18.00
2022-09-13T23:58:38.249Z,18.00
